Forside
METAR-TAF:

METAR-TAF

Lufthavne :

Olieplatform

Ekofisk, Norge

Breddekreds: 56-33N, længdekreds: 003-15E, højde: 3 m

Aktuelle vejr

Denne rapport blev lavet for 48 minutter siden, kl. 13:20 UTC
Vind 21 kt fra vest
Temperatur 8°C
Fugtighed 76%
Tryk 1030 hPa
Sigt 10 km eller mere
Nogle få skyer i en højde af 2000 ft
Brudte skyer i en højde af 5000 ft

METAR: ENLE 311320Z 27021KT 9999 FEW020 BKN050 08/04 Q1030 W07/S4

Tid: 16:08 (14:08 UTC)

Vejrudsigter

Denne rapport blev lavet for 3 timer og 8 minutter siden, kl. 11:00 UTC
Foreløbig gælder fra 31 på 12 UTC til 31 på 21 UTC
Vind 18 kt fra vestnordvest
Sigt 10 km eller mere
Nogle få skyer i en højde af 2000 ft
Brudte skyer i en højde af 3000 ft

TAF: ENLE 311100Z 3112/3121 30018KT 9999 FEW020 BKN030

Vejrobservationer og prognoser fra mere end 4000 lufthavne (METAR og TAF).

De gule og røde prikker repræsenterer de meteorologiske stationer.

Flyt musen over at se navnet på stationen.

Så klik over at se vejr observationer og prognoser.

At skifte det kort: Klik på de grønne knapper med et sort kors for at zoome ind; på den grønne knap med en bindestreg for at zoome ud; eller på de grønne pile for tilstødende kort.


METAR-TAF: